sensor_id;sensor_type;location;lat;lon;timestamp;P1;durP1;ratioP1;P2;durP2;ratioP2
59555;SDS011;45374;52.746;6.304;2023-02-04T00:01:42;39.40;;;5.72;;
59555;SDS011;45374;52.746;6.304;2023-02-04T00:04:08;59.85;;;7.10;;
59555;SDS011;45374;52.746;6.304;2023-02-04T00:06:36;53.65;;;5.90;;
59555;SDS011;45374;52.746;6.304;2023-02-04T00:09:01;48.55;;;6.63;;
59555;SDS011;45374;52.746;6.304;2023-02-04T00:11:27;56.95;;;7.05;;
59555;SDS011;45374;52.746;6.304;2023-02-04T00:13:52;54.65;;;6.47;;
59555;SDS011;45374;52.746;6.304;2023-02-04T00:16:18;47.20;;;5.72;;
59555;SDS011;45374;52.746;6.304;2023-02-04T00:18:43;47.42;;;6.13;;
59555;SDS011;45374;52.746;6.304;2023-02-04T00:21:09;57.05;;;6.95;;
59555;SDS011;45374;52.746;6.304;2023-02-04T00:23:35;59.72;;;6.53;;
59555;SDS011;45374;52.746;6.304;2023-02-04T00:26:00;48.30;;;6.00;;
59555;SDS011;45374;52.746;6.304;2023-02-04T00:28:26;48.03;;;6.65;;
59555;SDS011;45374;52.746;6.304;2023-02-04T00:30:52;54.80;;;6.40;;
59555;SDS011;45374;52.746;6.304;2023-02-04T00:33:17;51.40;;;6.38;;
59555;SDS011;45374;52.746;6.304;2023-02-04T00:35:43;49.05;;;5.80;;
59555;SDS011;45374;52.746;6.304;2023-02-04T00:38:09;45.83;;;5.60;;
59555;SDS011;45374;52.746;6.304;2023-02-04T00:40:35;59.42;;;6.82;;
59555;SDS011;45374;52.746;6.304;2023-02-04T00:43:04;52.80;;;5.72;;
59555;SDS011;45374;52.746;6.304;2023-02-04T00:45:29;44.83;;;6.30;;
59555;SDS011;45374;52.746;6.304;2023-02-04T00:47:55;41.80;;;5.10;;
59555;SDS011;45374;52.746;6.304;2023-02-04T00:50:21;44.45;;;5.90;;
59555;SDS011;45374;52.746;6.304;2023-02-04T00:52:47;55.67;;;7.10;;
59555;SDS011;45374;52.746;6.304;2023-02-04T00:55:13;46.20;;;5.85;;
59555;SDS011;45374;52.746;6.304;2023-02-04T00:57:41;49.55;;;6.65;;
59555;SDS011;45374;52.746;6.304;2023-02-04T01:00:07;55.40;;;7.10;;
59555;SDS011;45374;52.746;6.304;2023-02-04T01:02:33;39.85;;;5.53;;
59555;SDS011;45374;52.746;6.304;2023-02-04T01:04:59;48.10;;;6.80;;
59555;SDS011;45374;52.746;6.304;2023-02-04T01:07:25;58.72;;;6.70;;
59555;SDS011;45374;52.746;6.304;2023-02-04T01:09:50;56.58;;;5.97;;
59555;SDS011;45374;52.746;6.304;2023-02-04T01:12:16;49.95;;;6.57;;
59555;SDS011;45374;52.746;6.304;2023-02-04T01:14:41;58.38;;;7.43;;
59555;SDS011;45374;52.746;6.304;2023-02-04T01:17:07;56.92;;;6.90;;
59555;SDS011;45374;52.746;6.304;2023-02-04T01:19:33;62.53;;;5.63;;
59555;SDS011;45374;52.746;6.304;2023-02-04T01:21:58;48.80;;;6.28;;
59555;SDS011;45374;52.746;6.304;2023-02-04T01:24:24;53.38;;;7.78;;
59555;SDS011;45374;52.746;6.304;2023-02-04T01:26:50;40.30;;;4.90;;
59555;SDS011;45374;52.746;6.304;2023-02-04T01:29:15;60.67;;;6.43;;
59555;SDS011;45374;52.746;6.304;2023-02-04T01:31:41;44.08;;;6.13;;
59555;SDS011;45374;52.746;6.304;2023-02-04T01:34:06;52.42;;;5.70;;
59555;SDS011;45374;52.746;6.304;2023-02-04T01:36:32;47.13;;;6.00;;
59555;SDS011;45374;52.746;6.304;2023-02-04T01:38:58;63.15;;;7.03;;
59555;SDS011;45374;52.746;6.304;2023-02-04T01:41:25;53.40;;;6.70;;
59555;SDS011;45374;52.746;6.304;2023-02-04T01:43:51;41.55;;;6.43;;
59555;SDS011;45374;52.746;6.304;2023-02-04T01:46:17;48.20;;;6.78;;
59555;SDS011;45374;52.746;6.304;2023-02-04T01:48:43;50.65;;;5.68;;
59555;SDS011;45374;52.746;6.304;2023-02-04T01:51:10;62.65;;;7.25;;
59555;SDS011;45374;52.746;6.304;2023-02-04T01:53:39;43.40;;;4.72;;
59555;SDS011;45374;52.746;6.304;2023-02-04T01:56:16;45.63;;;6.45;;
59555;SDS011;45374;52.746;6.304;2023-02-04T01:58:44;42.28;;;5.20;;
59555;SDS011;45374;52.746;6.304;2023-02-04T02:01:12;44.60;;;5.82;;
59555;SDS011;45374;52.746;6.304;2023-02-04T02:03:39;56.25;;;5.75;;
59555;SDS011;45374;52.746;6.304;2023-02-04T02:06:06;40.38;;;4.97;;
59555;SDS011;45374;52.746;6.304;2023-02-04T02:08:33;31.98;;;5.13;;
59555;SDS011;45374;52.746;6.304;2023-02-04T02:11:02;44.72;;;5.63;;
59555;SDS011;45374;52.746;6.304;2023-02-04T02:13:28;48.95;;;5.72;;
59555;SDS011;45374;52.746;6.304;2023-02-04T02:15:54;51.88;;;5.93;;
59555;SDS011;45374;52.746;6.304;2023-02-04T02:18:19;36.40;;;5.20;;
59555;SDS011;45374;52.746;6.304;2023-02-04T02:20:45;48.50;;;5.63;;
59555;SDS011;45374;52.746;6.304;2023-02-04T02:25:53;58.92;;;6.20;;
59555;SDS011;45374;52.746;6.304;2023-02-04T02:28:19;44.92;;;5.00;;
59555;SDS011;45374;52.746;6.304;2023-02-04T02:30:47;45.80;;;6.03;;
59555;SDS011;45374;52.746;6.304;2023-02-04T02:33:14;54.42;;;6.53;;
59555;SDS011;45374;52.746;6.304;2023-02-04T02:35:41;49.65;;;5.18;;
59555;SDS011;45374;52.746;6.304;2023-02-04T02:38:10;52.90;;;5.80;;
59555;SDS011;45374;52.746;6.304;2023-02-04T02:40:36;43.72;;;5.50;;
59555;SDS011;45374;52.746;6.304;2023-02-04T02:43:02;51.28;;;5.43;;
59555;SDS011;45374;52.746;6.304;2023-02-04T02:45:29;38.50;;;5.78;;
59555;SDS011;45374;52.746;6.304;2023-02-04T02:47:56;44.05;;;5.35;;
59555;SDS011;45374;52.746;6.304;2023-02-04T02:50:25;52.58;;;6.68;;
59555;SDS011;45374;52.746;6.304;2023-02-04T02:52:53;49.95;;;5.85;;
59555;SDS011;45374;52.746;6.304;2023-02-04T02:55:20;54.55;;;6.55;;
59555;SDS011;45374;52.746;6.304;2023-02-04T02:57:48;48.05;;;5.68;;
59555;SDS011;45374;52.746;6.304;2023-02-04T03:02:44;62.85;;;6.22;;
59555;SDS011;45374;52.746;6.304;2023-02-04T03:05:13;46.47;;;6.45;;
59555;SDS011;45374;52.746;6.304;2023-02-04T03:07:39;53.63;;;5.93;;
59555;SDS011;45374;52.746;6.304;2023-02-04T03:10:04;49.25;;;5.47;;
59555;SDS011;45374;52.746;6.304;2023-02-04T03:12:30;55.67;;;6.32;;
59555;SDS011;45374;52.746;6.304;2023-02-04T03:14:56;53.10;;;6.95;;
59555;SDS011;45374;52.746;6.304;2023-02-04T03:17:21;54.53;;;6.57;;
59555;SDS011;45374;52.746;6.304;2023-02-04T03:19:47;56.42;;;6.30;;
59555;SDS011;45374;52.746;6.304;2023-02-04T03:22:13;48.42;;;5.53;;
59555;SDS011;45374;52.746;6.304;2023-02-04T03:24:39;45.88;;;5.47;;
59555;SDS011;45374;52.746;6.304;2023-02-04T03:27:05;52.72;;;6.38;;
59555;SDS011;45374;52.746;6.304;2023-02-04T03:29:31;51.08;;;6.13;;
59555;SDS011;45374;52.746;6.304;2023-02-04T03:31:57;53.33;;;5.90;;
59555;SDS011;45374;52.746;6.304;2023-02-04T03:34:23;46.67;;;5.63;;
59555;SDS011;45374;52.746;6.304;2023-02-04T03:36:49;55.20;;;6.13;;
59555;SDS011;45374;52.746;6.304;2023-02-04T03:39:15;51.55;;;5.55;;
59555;SDS011;45374;52.746;6.304;2023-02-04T03:41:41;51.72;;;4.95;;
59555;SDS011;45374;52.746;6.304;2023-02-04T03:44:06;58.65;;;5.32;;
59555;SDS011;45374;52.746;6.304;2023-02-04T03:46:32;49.50;;;5.60;;
59555;SDS011;45374;52.746;6.304;2023-02-04T03:48:57;47.05;;;5.45;;
59555;SDS011;45374;52.746;6.304;2023-02-04T03:51:23;46.47;;;5.60;;
59555;SDS011;45374;52.746;6.304;2023-02-04T03:53:49;51.10;;;7.00;;
59555;SDS011;45374;52.746;6.304;2023-02-04T03:56:14;46.42;;;6.32;;
59555;SDS011;45374;52.746;6.304;2023-02-04T03:58:40;51.83;;;6.05;;
59555;SDS011;45374;52.746;6.304;2023-02-04T04:01:06;42.50;;;5.68;;
59555;SDS011;45374;52.746;6.304;2023-02-04T04:03:31;46.80;;;5.65;;
59555;SDS011;45374;52.746;6.304;2023-02-04T04:05:57;50.95;;;5.95;;
59555;SDS011;45374;52.746;6.304;2023-02-04T04:08:22;53.22;;;5.65;;
59555;SDS011;45374;52.746;6.304;2023-02-04T04:10:49;48.70;;;5.80;;
59555;SDS011;45374;52.746;6.304;2023-02-04T04:13:14;51.65;;;5.72;;
59555;SDS011;45374;52.746;6.304;2023-02-04T04:15:40;55.55;;;5.65;;
59555;SDS011;45374;52.746;6.304;2023-02-04T04:18:06;57.72;;;5.78;;
59555;SDS011;45374;52.746;6.304;2023-02-04T04:20:31;41.03;;;6.72;;
59555;SDS011;45374;52.746;6.304;2023-02-04T04:22:57;55.25;;;6.03;;
59555;SDS011;45374;52.746;6.304;2023-02-04T04:25:22;49.75;;;5.43;;
59555;SDS011;45374;52.746;6.304;2023-02-04T04:27:48;52.55;;;5.78;;
59555;SDS011;45374;52.746;6.304;2023-02-04T04:30:13;44.88;;;4.88;;
59555;SDS011;45374;52.746;6.304;2023-02-04T04:32:39;57.05;;;6.28;;
59555;SDS011;45374;52.746;6.304;2023-02-04T04:35:05;45.72;;;5.53;;
59555;SDS011;45374;52.746;6.304;2023-02-04T04:37:31;46.90;;;5.05;;
59555;SDS011;45374;52.746;6.304;2023-02-04T04:39:58;65.07;;;6.35;;
59555;SDS011;45374;52.746;6.304;2023-02-04T04:42:25;49.25;;;5.13;;
59555;SDS011;45374;52.746;6.304;2023-02-04T04:44:51;52.45;;;6.00;;
59555;SDS011;45374;52.746;6.304;2023-02-04T04:47:16;53.45;;;6.05;;
59555;SDS011;45374;52.746;6.304;2023-02-04T04:49:42;55.13;;;6.03;;
59555;SDS011;45374;52.746;6.304;2023-02-04T04:52:07;56.72;;;6.47;;
59555;SDS011;45374;52.746;6.304;2023-02-04T04:54:33;49.38;;;5.78;;
59555;SDS011;45374;52.746;6.304;2023-02-04T04:56:58;44.08;;;5.30;;
59555;SDS011;45374;52.746;6.304;2023-02-04T04:59:24;51.80;;;5.90;;
59555;SDS011;45374;52.746;6.304;2023-02-04T05:01:49;58.60;;;6.50;;
59555;SDS011;45374;52.746;6.304;2023-02-04T05:04:15;51.33;;;5.97;;
59555;SDS011;45374;52.746;6.304;2023-02-04T05:06:41;52.75;;;6.28;;
59555;SDS011;45374;52.746;6.304;2023-02-04T05:09:06;59.28;;;6.65;;
59555;SDS011;45374;52.746;6.304;2023-02-04T05:11:33;61.53;;;7.28;;
59555;SDS011;45374;52.746;6.304;2023-02-04T05:13:59;58.70;;;6.75;;
59555;SDS011;45374;52.746;6.304;2023-02-04T05:16:24;56.08;;;6.03;;
59555;SDS011;45374;52.746;6.304;2023-02-04T05:18:50;52.33;;;5.70;;
59555;SDS011;45374;52.746;6.304;2023-02-04T05:21:16;46.38;;;5.43;;
59555;SDS011;45374;52.746;6.304;2023-02-04T05:23:41;51.60;;;5.18;;
59555;SDS011;45374;52.746;6.304;2023-02-04T05:26:07;46.38;;;5.65;;
59555;SDS011;45374;52.746;6.304;2023-02-04T05:28:32;56.53;;;5.82;;
59555;SDS011;45374;52.746;6.304;2023-02-04T05:30:58;51.35;;;7.13;;
59555;SDS011;45374;52.746;6.304;2023-02-04T05:33:24;54.55;;;6.75;;
59555;SDS011;45374;52.746;6.304;2023-02-04T05:35:49;45.72;;;6.50;;
59555;SDS011;45374;52.746;6.304;2023-02-04T05:38:15;60.25;;;7.15;;
59555;SDS011;45374;52.746;6.304;2023-02-04T05:40:40;48.38;;;6.28;;
59555;SDS011;45374;52.746;6.304;2023-02-04T05:43:06;48.40;;;6.65;;
59555;SDS011;45374;52.746;6.304;2023-02-04T05:45:31;47.33;;;6.03;;
59555;SDS011;45374;52.746;6.304;2023-02-04T05:47:57;52.17;;;6.03;;
59555;SDS011;45374;52.746;6.304;2023-02-04T05:50:23;61.90;;;6.60;;
59555;SDS011;45374;52.746;6.304;2023-02-04T05:52:48;46.47;;;5.90;;
59555;SDS011;45374;52.746;6.304;2023-02-04T05:55:14;49.30;;;6.00;;
59555;SDS011;45374;52.746;6.304;2023-02-04T05:57:39;54.30;;;6.47;;
59555;SDS011;45374;52.746;6.304;2023-02-04T06:00:05;57.10;;;6.60;;
59555;SDS011;45374;52.746;6.304;2023-02-04T06:02:31;43.40;;;5.75;;
59555;SDS011;45374;52.746;6.304;2023-02-04T06:04:57;58.55;;;5.55;;
59555;SDS011;45374;52.746;6.304;2023-02-04T06:07:23;50.55;;;6.32;;
59555;SDS011;45374;52.746;6.304;2023-02-04T06:09:48;62.28;;;5.55;;
59555;SDS011;45374;52.746;6.304;2023-02-04T06:12:14;45.22;;;6.20;;
59555;SDS011;45374;52.746;6.304;2023-02-04T06:14:39;50.80;;;6.03;;
59555;SDS011;45374;52.746;6.304;2023-02-04T06:17:05;45.97;;;5.70;;
59555;SDS011;45374;52.746;6.304;2023-02-04T06:19:31;49.67;;;6.40;;
59555;SDS011;45374;52.746;6.304;2023-02-04T06:21:56;45.13;;;4.90;;
59555;SDS011;45374;52.746;6.304;2023-02-04T06:24:22;47.70;;;5.50;;
59555;SDS011;45374;52.746;6.304;2023-02-04T06:26:47;50.53;;;6.38;;
59555;SDS011;45374;52.746;6.304;2023-02-04T06:29:13;47.50;;;5.70;;
59555;SDS011;45374;52.746;6.304;2023-02-04T06:31:38;56.47;;;6.25;;
59555;SDS011;45374;52.746;6.304;2023-02-04T06:34:04;50.25;;;6.50;;
59555;SDS011;45374;52.746;6.304;2023-02-04T06:36:30;51.25;;;5.55;;
59555;SDS011;45374;52.746;6.304;2023-02-04T06:38:56;53.28;;;5.93;;
59555;SDS011;45374;52.746;6.304;2023-02-04T06:41:22;47.25;;;5.80;;
59555;SDS011;45374;52.746;6.304;2023-02-04T06:43:47;56.67;;;5.63;;
59555;SDS011;45374;52.746;6.304;2023-02-04T06:46:13;53.38;;;5.72;;
59555;SDS011;45374;52.746;6.304;2023-02-04T06:48:40;69.88;;;5.78;;
59555;SDS011;45374;52.746;6.304;2023-02-04T06:51:05;61.70;;;6.93;;
59555;SDS011;45374;52.746;6.304;2023-02-04T06:53:31;61.88;;;6.50;;
59555;SDS011;45374;52.746;6.304;2023-02-04T06:55:56;55.33;;;5.25;;
59555;SDS011;45374;52.746;6.304;2023-02-04T06:58:22;45.38;;;5.70;;
59555;SDS011;45374;52.746;6.304;2023-02-04T07:00:47;50.45;;;5.50;;
59555;SDS011;45374;52.746;6.304;2023-02-04T07:03:13;45.95;;;5.28;;
59555;SDS011;45374;52.746;6.304;2023-02-04T07:05:38;46.28;;;6.18;;
59555;SDS011;45374;52.746;6.304;2023-02-04T07:08:04;52.25;;;5.97;;
59555;SDS011;45374;52.746;6.304;2023-02-04T07:10:30;42.67;;;5.78;;
59555;SDS011;45374;52.746;6.304;2023-02-04T07:12:56;50.75;;;5.60;;
59555;SDS011;45374;52.746;6.304;2023-02-04T07:15:22;53.30;;;5.50;;
59555;SDS011;45374;52.746;6.304;2023-02-04T07:17:48;46.67;;;5.85;;
59555;SDS011;45374;52.746;6.304;2023-02-04T07:20:14;45.83;;;5.22;;
59555;SDS011;45374;52.746;6.304;2023-02-04T07:22:40;39.70;;;5.47;;
59555;SDS011;45374;52.746;6.304;2023-02-04T07:25:06;66.82;;;6.55;;
59555;SDS011;45374;52.746;6.304;2023-02-04T07:27:32;50.30;;;6.03;;
59555;SDS011;45374;52.746;6.304;2023-02-04T07:29:58;51.17;;;5.70;;
59555;SDS011;45374;52.746;6.304;2023-02-04T07:32:23;47.60;;;5.13;;
59555;SDS011;45374;52.746;6.304;2023-02-04T07:34:51;49.67;;;5.60;;
59555;SDS011;45374;52.746;6.304;2023-02-04T07:37:17;45.05;;;5.07;;
59555;SDS011;45374;52.746;6.304;2023-02-04T07:39:44;48.05;;;5.88;;
59555;SDS011;45374;52.746;6.304;2023-02-04T07:42:10;50.63;;;6.05;;
59555;SDS011;45374;52.746;6.304;2023-02-04T07:44:35;47.63;;;4.90;;
59555;SDS011;45374;52.746;6.304;2023-02-04T07:47:01;40.90;;;5.07;;
59555;SDS011;45374;52.746;6.304;2023-02-04T07:49:27;48.80;;;5.32;;
59555;SDS011;45374;52.746;6.304;2023-02-04T07:51:53;43.92;;;5.20;;
59555;SDS011;45374;52.746;6.304;2023-02-04T07:54:18;43.30;;;5.60;;
59555;SDS011;45374;52.746;6.304;2023-02-04T07:56:44;49.97;;;5.35;;
59555;SDS011;45374;52.746;6.304;2023-02-04T07:59:09;40.33;;;6.38;;
59555;SDS011;45374;52.746;6.304;2023-02-04T08:01:35;41.78;;;6.10;;
59555;SDS011;45374;52.746;6.304;2023-02-04T08:04:01;42.97;;;6.03;;
59555;SDS011;45374;52.746;6.304;2023-02-04T08:06:26;48.63;;;5.82;;
59555;SDS011;45374;52.746;6.304;2023-02-04T08:08:52;42.28;;;5.85;;
59555;SDS011;45374;52.746;6.304;2023-02-04T08:11:17;56.15;;;5.97;;
59555;SDS011;45374;52.746;6.304;2023-02-04T08:13:43;56.65;;;5.93;;
59555;SDS011;45374;52.746;6.304;2023-02-04T08:16:08;58.10;;;5.82;;
59555;SDS011;45374;52.746;6.304;2023-02-04T08:18:34;50.75;;;6.35;;
59555;SDS011;45374;52.746;6.304;2023-02-04T08:21:00;52.35;;;5.68;;
59555;SDS011;45374;52.746;6.304;2023-02-04T08:23:27;52.80;;;5.85;;
59555;SDS011;45374;52.746;6.304;2023-02-04T08:25:52;58.10;;;6.03;;
59555;SDS011;45374;52.746;6.304;2023-02-04T08:28:18;54.15;;;7.22;;
59555;SDS011;45374;52.746;6.304;2023-02-04T08:30:43;64.13;;;6.97;;
59555;SDS011;45374;52.746;6.304;2023-02-04T08:33:09;62.17;;;6.82;;
59555;SDS011;45374;52.746;6.304;2023-02-04T08:35:35;65.07;;;7.13;;
59555;SDS011;45374;52.746;6.304;2023-02-04T08:38:00;52.63;;;6.25;;
59555;SDS011;45374;52.746;6.304;2023-02-04T08:40:26;49.90;;;6.40;;
59555;SDS011;45374;52.746;6.304;2023-02-04T08:42:51;46.22;;;5.78;;
59555;SDS011;45374;52.746;6.304;2023-02-04T08:45:17;49.55;;;5.70;;
59555;SDS011;45374;52.746;6.304;2023-02-04T08:47:42;44.72;;;5.55;;
59555;SDS011;45374;52.746;6.304;2023-02-04T08:50:09;47.95;;;5.65;;
59555;SDS011;45374;52.746;6.304;2023-02-04T08:52:35;53.08;;;6.05;;
59555;SDS011;45374;52.746;6.304;2023-02-04T08:55:00;33.63;;;4.40;;
59555;SDS011;45374;52.746;6.304;2023-02-04T08:57:26;34.63;;;4.03;;
59555;SDS011;45374;52.746;6.304;2023-02-04T08:59:52;25.83;;;3.72;;
59555;SDS011;45374;52.746;6.304;2023-02-04T09:02:17;40.50;;;4.72;;
59555;SDS011;45374;52.746;6.304;2023-02-04T09:04:43;35.08;;;3.80;;
59555;SDS011;45374;52.746;6.304;2023-02-04T09:07:08;29.38;;;3.83;;
59555;SDS011;45374;52.746;6.304;2023-02-04T09:09:34;21.17;;;2.88;;
59555;SDS011;45374;52.746;6.304;2023-02-04T09:11:59;17.73;;;3.05;;
59555;SDS011;45374;52.746;6.304;2023-02-04T09:14:26;18.25;;;2.85;;
59555;SDS011;45374;52.746;6.304;2023-02-04T09:16:51;23.10;;;2.92;;
59555;SDS011;45374;52.746;6.304;2023-02-04T09:19:17;16.65;;;2.55;;
59555;SDS011;45374;52.746;6.304;2023-02-04T09:21:48;23.45;;;2.95;;
59555;SDS011;45374;52.746;6.304;2023-02-04T09:24:13;19.13;;;2.78;;
59555;SDS011;45374;52.746;6.304;2023-02-04T09:26:40;20.05;;;3.08;;
59555;SDS011;45374;52.746;6.304;2023-02-04T09:29:05;20.20;;;3.13;;
59555;SDS011;45374;52.746;6.304;2023-02-04T09:31:31;18.85;;;2.75;;
59555;SDS011;45374;52.746;6.304;2023-02-04T09:33:56;20.25;;;2.90;;
59555;SDS011;45374;52.746;6.304;2023-02-04T09:36:23;13.68;;;2.28;;
59555;SDS011;45374;52.746;6.304;2023-02-04T09:38:52;16.58;;;2.40;;
59555;SDS011;45374;52.746;6.304;2023-02-04T09:41:18;15.88;;;2.17;;
59555;SDS011;45374;52.746;6.304;2023-02-04T09:43:44;18.73;;;3.13;;
59555;SDS011;45374;52.746;6.304;2023-02-04T09:46:23;15.85;;;2.88;;
59555;SDS011;45374;52.746;6.304;2023-02-04T09:48:53;18.42;;;2.92;;
59555;SDS011;45374;52.746;6.304;2023-02-04T09:51:20;14.35;;;2.67;;
59555;SDS011;45374;52.746;6.304;2023-02-04T09:53:48;15.55;;;3.47;;
59555;SDS011;45374;52.746;6.304;2023-02-04T09:56:17;20.73;;;3.03;;
59555;SDS011;45374;52.746;6.304;2023-02-04T09:58:43;17.58;;;2.72;;
59555;SDS011;45374;52.746;6.304;2023-02-04T10:01:15;21.08;;;3.10;;
59555;SDS011;45374;52.746;6.304;2023-02-04T10:03:43;18.45;;;3.22;;
59555;SDS011;45374;52.746;6.304;2023-02-04T10:06:14;17.40;;;2.95;;
59555;SDS011;45374;52.746;6.304;2023-02-04T10:08:41;23.48;;;3.35;;
59555;SDS011;45374;52.746;6.304;2023-02-04T10:11:08;17.25;;;2.90;;
59555;SDS011;45374;52.746;6.304;2023-02-04T10:13:42;19.50;;;2.85;;
59555;SDS011;45374;52.746;6.304;2023-02-04T10:16:16;20.15;;;2.92;;
59555;SDS011;45374;52.746;6.304;2023-02-04T10:18:47;17.98;;;4.95;;
59555;SDS011;45374;52.746;6.304;2023-02-04T10:23:39;25.00;;;3.80;;
59555;SDS011;45374;52.746;6.304;2023-02-04T10:26:05;22.63;;;3.20;;
59555;SDS011;45374;52.746;6.304;2023-02-04T10:28:34;17.27;;;3.17;;
59555;SDS011;45374;52.746;6.304;2023-02-04T10:31:01;16.90;;;3.15;;
59555;SDS011;45374;52.746;6.304;2023-02-04T10:33:27;25.58;;;3.53;;
59555;SDS011;45374;52.746;6.304;2023-02-04T10:35:55;18.80;;;2.90;;
59555;SDS011;45374;52.746;6.304;2023-02-04T10:38:21;21.13;;;3.65;;
59555;SDS011;45374;52.746;6.304;2023-02-04T10:40:47;21.13;;;3.70;;
59555;SDS011;45374;52.746;6.304;2023-02-04T10:43:21;15.13;;;2.88;;
59555;SDS011;45374;52.746;6.304;2023-02-04T10:45:58;16.67;;;3.10;;
59555;SDS011;45374;52.746;6.304;2023-02-04T10:48:26;25.95;;;3.80;;
59555;SDS011;45374;52.746;6.304;2023-02-04T10:50:54;23.13;;;3.58;;
59555;SDS011;45374;52.746;6.304;2023-02-04T10:53:22;19.15;;;3.28;;
59555;SDS011;45374;52.746;6.304;2023-02-04T10:56:13;21.48;;;3.58;;
59555;SDS011;45374;52.746;6.304;2023-02-04T10:58:41;22.52;;;3.15;;
59555;SDS011;45374;52.746;6.304;2023-02-04T11:01:10;22.55;;;3.80;;
59555;SDS011;45374;52.746;6.304;2023-02-04T11:03:38;21.17;;;3.30;;
59555;SDS011;45374;52.746;6.304;2023-02-04T11:06:09;21.50;;;4.07;;
59555;SDS011;45374;52.746;6.304;2023-02-04T11:08:37;24.58;;;3.47;;
59555;SDS011;45374;52.746;6.304;2023-02-04T11:11:14;24.90;;;4.03;;
59555;SDS011;45374;52.746;6.304;2023-02-04T11:26:38;16.35;;;3.53;;
59555;SDS011;45374;52.746;6.304;2023-02-04T11:39:42;20.48;;;3.58;;
59555;SDS011;45374;52.746;6.304;2023-02-04T11:42:20;26.63;;;3.60;;
59555;SDS011;45374;52.746;6.304;2023-02-04T11:45:07;29.42;;;4.18;;
59555;SDS011;45374;52.746;6.304;2023-02-04T11:47:38;23.42;;;3.50;;
59555;SDS011;45374;52.746;6.304;2023-02-04T11:50:10;16.05;;;3.05;;
59555;SDS011;45374;52.746;6.304;2023-02-04T11:52:41;20.40;;;3.10;;
59555;SDS011;45374;52.746;6.304;2023-02-04T11:55:09;22.92;;;3.72;;
59555;SDS011;45374;52.746;6.304;2023-02-04T11:57:42;20.75;;;3.25;;
59555;SDS011;45374;52.746;6.304;2023-02-04T12:00:12;18.95;;;3.55;;
59555;SDS011;45374;52.746;6.304;2023-02-04T12:02:59;22.42;;;3.88;;
59555;SDS011;45374;52.746;6.304;2023-02-04T12:05:42;14.32;;;3.85;;
59555;SDS011;45374;52.746;6.304;2023-02-04T12:13:26;15.63;;;3.00;;
59555;SDS011;45374;52.746;6.304;2023-02-04T12:16:05;19.65;;;2.95;;
59555;SDS011;45374;52.746;6.304;2023-02-04T12:18:32;16.92;;;3.20;;
59555;SDS011;45374;52.746;6.304;2023-02-04T12:20:59;23.63;;;3.58;;
59555;SDS011;45374;52.746;6.304;2023-02-04T12:23:25;20.95;;;3.40;;
59555;SDS011;45374;52.746;6.304;2023-02-04T12:25:52;20.30;;;2.83;;
59555;SDS011;45374;52.746;6.304;2023-02-04T12:28:18;13.32;;;2.70;;
59555;SDS011;45374;52.746;6.304;2023-02-04T12:30:44;16.60;;;3.38;;
59555;SDS011;45374;52.746;6.304;2023-02-04T12:33:10;16.13;;;3.20;;
59555;SDS011;45374;52.746;6.304;2023-02-04T12:35:35;12.30;;;3.38;;
59555;SDS011;45374;52.746;6.304;2023-02-04T12:38:01;18.20;;;3.45;;
59555;SDS011;45374;52.746;6.304;2023-02-04T12:40:27;16.02;;;3.10;;
59555;SDS011;45374;52.746;6.304;2023-02-04T12:42:53;17.95;;;3.15;;
59555;SDS011;45374;52.746;6.304;2023-02-04T12:45:19;19.13;;;3.45;;
59555;SDS011;45374;52.746;6.304;2023-02-04T12:47:45;18.67;;;3.28;;
59555;SDS011;45374;52.746;6.304;2023-02-04T12:50:11;23.33;;;3.22;;
59555;SDS011;45374;52.746;6.304;2023-02-04T12:52:39;25.52;;;3.80;;
59555;SDS011;45374;52.746;6.304;2023-02-04T12:55:05;21.17;;;3.55;;
59555;SDS011;45374;52.746;6.304;2023-02-04T12:57:33;16.55;;;2.80;;
59555;SDS011;45374;52.746;6.304;2023-02-04T12:59:59;17.42;;;3.28;;
59555;SDS011;45374;52.746;6.304;2023-02-04T13:02:28;20.70;;;3.20;;
59555;SDS011;45374;52.746;6.304;2023-02-04T13:04:54;22.38;;;3.28;;
59555;SDS011;45374;52.746;6.304;2023-02-04T13:07:20;19.13;;;3.47;;
59555;SDS011;45374;52.746;6.304;2023-02-04T13:09:46;19.27;;;3.50;;
59555;SDS011;45374;52.746;6.304;2023-02-04T13:12:12;15.57;;;3.30;;
59555;SDS011;45374;52.746;6.304;2023-02-04T13:14:39;17.90;;;3.25;;
59555;SDS011;45374;52.746;6.304;2023-02-04T13:17:05;18.42;;;3.58;;
59555;SDS011;45374;52.746;6.304;2023-02-04T13:19:31;19.33;;;3.25;;
59555;SDS011;45374;52.746;6.304;2023-02-04T13:21:57;22.73;;;3.50;;
59555;SDS011;45374;52.746;6.304;2023-02-04T13:24:23;24.10;;;2.92;;
59555;SDS011;45374;52.746;6.304;2023-02-04T13:26:49;18.42;;;3.33;;
59555;SDS011;45374;52.746;6.304;2023-02-04T13:29:15;17.80;;;3.40;;
59555;SDS011;45374;52.746;6.304;2023-02-04T13:31:40;15.35;;;3.42;;
59555;SDS011;45374;52.746;6.304;2023-02-04T13:34:06;17.02;;;3.80;;
59555;SDS011;45374;52.746;6.304;2023-02-04T13:36:32;23.20;;;3.22;;
59555;SDS011;45374;52.746;6.304;2023-02-04T13:38:57;17.60;;;3.17;;
59555;SDS011;45374;52.746;6.304;2023-02-04T13:41:24;20.08;;;3.05;;
59555;SDS011;45374;52.746;6.304;2023-02-04T13:43:53;23.77;;;3.75;;
59555;SDS011;45374;52.746;6.304;2023-02-04T13:46:20;16.95;;;3.10;;
59555;SDS011;45374;52.746;6.304;2023-02-04T13:48:46;19.42;;;3.03;;
59555;SDS011;45374;52.746;6.304;2023-02-04T13:51:12;17.13;;;3.13;;
59555;SDS011;45374;52.746;6.304;2023-02-04T13:53:38;16.63;;;3.35;;
59555;SDS011;45374;52.746;6.304;2023-02-04T13:56:04;22.90;;;3.78;;
59555;SDS011;45374;52.746;6.304;2023-02-04T13:58:29;18.10;;;3.67;;
59555;SDS011;45374;52.746;6.304;2023-02-04T14:00:55;16.88;;;3.33;;
59555;SDS011;45374;52.746;6.304;2023-02-04T14:03:28;18.25;;;3.50;;
59555;SDS011;45374;52.746;6.304;2023-02-04T14:05:54;19.13;;;3.92;;
59555;SDS011;45374;52.746;6.304;2023-02-04T14:08:20;16.75;;;3.58;;
59555;SDS011;45374;52.746;6.304;2023-02-04T14:10:46;23.90;;;4.25;;
59555;SDS011;45374;52.746;6.304;2023-02-04T14:13:12;19.88;;;3.65;;
59555;SDS011;45374;52.746;6.304;2023-02-04T14:15:38;17.02;;;3.53;;
59555;SDS011;45374;52.746;6.304;2023-02-04T14:18:05;18.58;;;3.40;;
59555;SDS011;45374;52.746;6.304;2023-02-04T14:20:31;18.25;;;3.45;;
59555;SDS011;45374;52.746;6.304;2023-02-04T14:22:57;25.90;;;4.15;;
59555;SDS011;45374;52.746;6.304;2023-02-04T14:25:23;19.48;;;3.97;;
59555;SDS011;45374;52.746;6.304;2023-02-04T14:27:48;22.33;;;4.40;;
59555;SDS011;45374;52.746;6.304;2023-02-04T14:30:15;26.23;;;5.10;;
59555;SDS011;45374;52.746;6.304;2023-02-04T14:32:45;16.58;;;3.95;;
59555;SDS011;45374;52.746;6.304;2023-02-04T14:35:11;25.10;;;3.95;;
59555;SDS011;45374;52.746;6.304;2023-02-04T14:37:38;20.08;;;3.58;;
59555;SDS011;45374;52.746;6.304;2023-02-04T14:40:05;26.85;;;4.38;;
59555;SDS011;45374;52.746;6.304;2023-02-04T14:42:31;17.33;;;3.75;;
59555;SDS011;45374;52.746;6.304;2023-02-04T14:44:57;27.40;;;4.10;;
59555;SDS011;45374;52.746;6.304;2023-02-04T14:47:22;24.40;;;4.07;;
59555;SDS011;45374;52.746;6.304;2023-02-04T14:49:48;22.63;;;3.60;;
59555;SDS011;45374;52.746;6.304;2023-02-04T14:52:13;18.77;;;3.83;;
59555;SDS011;45374;52.746;6.304;2023-02-04T14:54:41;16.80;;;3.47;;
59555;SDS011;45374;52.746;6.304;2023-02-04T14:57:06;19.98;;;4.45;;
59555;SDS011;45374;52.746;6.304;2023-02-04T14:59:35;22.83;;;4.00;;
59555;SDS011;45374;52.746;6.304;2023-02-04T15:02:02;23.23;;;4.30;;
59555;SDS011;45374;52.746;6.304;2023-02-04T15:04:29;15.27;;;4.10;;
59555;SDS011;45374;52.746;6.304;2023-02-04T15:06:55;21.27;;;4.32;;